createdAt,value
2022-08-03T00:01:47.518Z,17.63
2022-08-03T00:04:16.185Z,17.73
2022-08-03T00:06:46.200Z,18.03
2022-08-03T00:09:14.910Z,23.47
2022-08-03T00:11:43.453Z,18.90
2022-08-03T00:14:11.979Z,18.67
2022-08-03T00:16:40.571Z,20.33
2022-08-03T00:19:09.155Z,18.90
2022-08-03T00:21:37.964Z,17.77
2022-08-03T00:24:08.527Z,18.80
2022-08-03T00:26:37.077Z,19.17
2022-08-03T00:29:05.669Z,17.97
2022-08-03T00:31:43.036Z,19.47
2022-08-03T00:34:57.216Z,18.47
2022-08-03T00:37:11.555Z,18.80
2022-08-03T00:39:43.484Z,17.50
2022-08-03T00:42:12.147Z,18.43
2022-08-03T00:44:41.777Z,18.37
2022-08-03T00:47:11.301Z,19.40
2022-08-03T00:49:41.329Z,19.67
2022-08-03T00:52:10.851Z,18.43
2022-08-03T00:54:41.553Z,20.27
2022-08-03T00:57:10.356Z,17.53
2022-08-03T00:59:39.729Z,17.53
2022-08-03T01:02:09.255Z,18.57
2022-08-03T01:04:38.031Z,18.43
2022-08-03T01:07:17.515Z,18.97
2022-08-03T01:10:01.939Z,18.93
2022-08-03T01:12:38.077Z,19.63
2022-08-03T01:15:12.296Z,19.20
2022-08-03T01:17:50.667Z,19.20
2022-08-03T01:20:21.950Z,18.23
2022-08-03T01:23:11.763Z,17.97
2022-08-03T01:25:56.968Z,18.17
2022-08-03T01:28:39.797Z,19.73
2022-08-03T01:31:12.601Z,17.27
2022-08-03T01:33:45.123Z,19.07
2022-08-03T01:36:17.075Z,19.17
2022-08-03T01:38:50.447Z,20.23
2022-08-03T01:41:22.868Z,21.50
2022-08-03T01:44:28.606Z,17.27
2022-08-03T01:46:47.933Z,19.43
2022-08-03T01:49:18.642Z,17.07
2022-08-03T01:51:57.888Z,17.27
2022-08-03T01:54:36.848Z,18.43
2022-08-03T01:57:06.073Z,16.93
2022-08-03T01:59:37.486Z,19.70
2022-08-03T02:02:27.811Z,19.57
2022-08-03T02:05:00.091Z,19.33
2022-08-03T02:07:30.450Z,17.63
2022-08-03T02:10:00.683Z,17.77
2022-08-03T02:12:32.360Z,18.30
2022-08-03T02:15:03.128Z,19.23
2022-08-03T02:17:39.319Z,18.83
2022-08-03T02:20:12.242Z,17.60
2022-08-03T02:22:42.450Z,17.70
2022-08-03T02:25:12.121Z,18.73
2022-08-03T02:27:45.825Z,16.67
2022-08-03T02:30:15.463Z,18.57
2022-08-03T02:32:50.298Z,16.80
2022-08-03T02:35:22.168Z,17.70
2022-08-03T02:37:54.574Z,16.43
2022-08-03T02:40:25.808Z,19.17
2022-08-03T02:43:00.350Z,17.13
2022-08-03T02:45:29.915Z,18.33
2022-08-03T02:48:03.994Z,15.87
2022-08-03T02:50:35.132Z,18.87
2022-08-03T02:53:05.777Z,17.20
2022-08-03T02:55:43.194Z,17.63
2022-08-03T02:58:18.484Z,17.77
2022-08-03T03:00:47.493Z,17.00
2022-08-03T03:03:17.646Z,18.07
2022-08-03T03:05:55.015Z,18.10
2022-08-03T03:08:28.709Z,19.30
2022-08-03T03:11:00.531Z,20.00
2022-08-03T03:13:31.353Z,16.07
2022-08-03T03:16:02.533Z,17.83
2022-08-03T03:18:33.629Z,21.40
2022-08-03T03:21:03.865Z,18.60
2022-08-03T03:23:36.581Z,18.90
2022-08-03T03:26:06.159Z,17.40
2022-08-03T03:28:37.001Z,19.93
2022-08-03T03:31:06.438Z,18.27
2022-08-03T03:33:37.564Z,17.67
2022-08-03T03:36:07.606Z,19.40
2022-08-03T03:38:36.473Z,18.97
2022-08-03T03:41:06.172Z,17.83
2022-08-03T03:43:35.178Z,18.20
2022-08-03T03:46:03.942Z,22.70
2022-08-03T03:48:33.926Z,19.13
2022-08-03T03:51:04.291Z,18.13
2022-08-03T03:53:33.007Z,22.77
2022-08-03T03:56:03.115Z,20.60
2022-08-03T03:58:33.617Z,22.87
2022-08-03T04:01:02.730Z,18.57
2022-08-03T04:03:31.603Z,17.43
2022-08-03T04:06:17.722Z,20.17
2022-08-03T04:09:05.756Z,20.93
2022-08-03T04:11:40.572Z,18.03
2022-08-03T04:14:13.204Z,22.07
2022-08-03T04:16:44.477Z,24.03
2022-08-03T04:19:21.166Z,19.70
2022-08-03T04:21:53.503Z,16.70
2022-08-03T04:24:31.703Z,18.07
2022-08-03T04:27:02.039Z,18.87
2022-08-03T04:29:34.759Z,18.70
2022-08-03T04:32:06.554Z,20.17
2022-08-03T04:34:35.222Z,18.57
2022-08-03T04:37:08.239Z,20.47
2022-08-03T04:39:40.100Z,17.97
2022-08-03T04:42:12.111Z,18.47
2022-08-03T04:44:43.152Z,19.47
2022-08-03T04:47:11.831Z,25.17
2022-08-03T04:49:41.186Z,24.80
2022-08-03T04:52:10.941Z,24.73
2022-08-03T04:54:50.628Z,24.17
2022-08-03T04:57:22.739Z,19.10
2022-08-03T05:00:02.597Z,18.33
2022-08-03T05:02:32.727Z,24.53
2022-08-03T05:05:01.738Z,18.87
2022-08-03T05:07:36.182Z,24.47
2022-08-03T05:10:16.059Z,18.53
2022-08-03T05:12:46.781Z,23.20
2022-08-03T05:15:15.942Z,22.07
2022-08-03T05:17:44.703Z,20.20
2022-08-03T05:20:13.866Z,26.87
2022-08-03T05:22:46.708Z,25.03
2022-08-03T05:25:17.421Z,20.27
2022-08-03T05:27:48.656Z,20.13
2022-08-03T05:30:27.288Z,19.97
2022-08-03T05:33:03.261Z,22.03
2022-08-03T05:35:56.847Z,27.83
2022-08-03T05:38:24.049Z,26.20
2022-08-03T05:41:20.202Z,26.80
2022-08-03T05:43:48.554Z,22.27
2022-08-03T05:46:18.516Z,26.93
2022-08-03T05:48:47.098Z,22.70
2022-08-03T05:51:16.003Z,27.20
2022-08-03T05:53:45.103Z,26.47
2022-08-03T05:56:16.618Z,24.83
2022-08-03T05:58:46.792Z,24.37
2022-08-03T06:01:16.139Z,28.13
2022-08-03T06:03:44.921Z,26.30
2022-08-03T06:06:13.539Z,27.20
2022-08-03T06:08:42.554Z,33.13
2022-08-03T06:11:11.587Z,25.80
2022-08-03T06:13:42.029Z,29.83
2022-08-03T06:16:11.241Z,28.43
2022-08-03T06:18:40.496Z,23.63
2022-08-03T06:21:15.170Z,20.07
2022-08-03T06:23:54.178Z,23.07
2022-08-03T06:26:26.043Z,18.70
2022-08-03T06:28:56.129Z,19.93
2022-08-03T06:31:32.741Z,18.87
2022-08-03T06:34:34.262Z,18.27
2022-08-03T06:36:53.013Z,20.03
2022-08-03T06:39:23.500Z,21.63
2022-08-03T06:41:53.932Z,26.03
2022-08-03T06:44:24.050Z,19.67
2022-08-03T06:46:53.046Z,25.33
2022-08-03T06:49:21.857Z,19.07
2022-08-03T06:52:05.970Z,18.50
2022-08-03T06:54:36.849Z,24.63
2022-08-03T06:57:08.230Z,20.60
2022-08-03T07:00:10.468Z,21.33
2022-08-03T07:02:28.382Z,24.47
2022-08-03T07:05:00.093Z,20.80
2022-08-03T07:07:28.803Z,21.77
2022-08-03T07:09:58.374Z,22.27
2022-08-03T07:12:28.685Z,20.87
2022-08-03T07:15:02.146Z,19.30
2022-08-03T07:17:32.973Z,25.80
2022-08-03T07:20:02.423Z,27.03
2022-08-03T07:22:31.237Z,24.57
2022-08-03T07:24:59.989Z,22.00
2022-08-03T07:27:29.662Z,23.17
2022-08-03T07:30:00.418Z,23.30
2022-08-03T07:32:31.515Z,20.87
2022-08-03T07:35:01.517Z,23.13
2022-08-03T07:37:31.250Z,20.90
2022-08-03T07:40:00.490Z,24.87
2022-08-03T07:42:29.501Z,20.43
2022-08-03T07:45:00.291Z,28.43
2022-08-03T07:47:35.425Z,21.20
2022-08-03T07:50:08.732Z,22.50
2022-08-03T07:52:50.591Z,28.10
2022-08-03T07:55:20.632Z,22.40
2022-08-03T07:58:00.049Z,20.40
2022-08-03T08:00:30.474Z,24.93
2022-08-03T08:02:59.454Z,22.53
2022-08-03T08:05:29.575Z,23.57
2022-08-03T08:07:58.319Z,20.57
2022-08-03T08:10:27.354Z,24.43
2022-08-03T08:12:56.982Z,23.40
2022-08-03T08:15:26.087Z,25.73
2022-08-03T08:17:57.791Z,21.30
2022-08-03T08:20:31.827Z,20.33
2022-08-03T08:23:02.016Z,23.80
2022-08-03T08:25:33.093Z,22.87
2022-08-03T08:28:31.872Z,25.00
2022-08-03T08:30:52.575Z,21.60
2022-08-03T08:33:23.967Z,20.97
2022-08-03T08:35:54.673Z,22.10
2022-08-03T08:38:23.796Z,27.83
2022-08-03T08:40:52.475Z,22.40
2022-08-03T08:43:21.103Z,20.87
2022-08-03T08:45:51.708Z,20.80
2022-08-03T08:48:25.783Z,20.83
2022-08-03T08:50:55.516Z,21.27
2022-08-03T08:53:27.650Z,22.00
2022-08-03T08:56:00.979Z,22.53
2022-08-03T08:58:38.154Z,22.87
2022-08-03T09:01:07.813Z,23.13
2022-08-03T09:03:38.017Z,23.27
2022-08-03T09:06:07.572Z,22.70
2022-08-03T09:08:36.351Z,23.87
2022-08-03T09:11:05.146Z,24.83
2022-08-03T09:13:35.460Z,27.90
2022-08-03T09:16:22.760Z,25.13
2022-08-03T09:18:55.699Z,21.97
2022-08-03T09:21:34.255Z,23.10
2022-08-03T09:24:07.069Z,27.47
2022-08-03T09:26:39.074Z,25.30
2022-08-03T09:29:14.619Z,23.90
2022-08-03T09:31:46.237Z,24.20
2022-08-03T09:34:17.362Z,27.57
2022-08-03T09:36:47.529Z,26.50
2022-08-03T09:39:17.750Z,30.10
2022-08-03T09:41:48.190Z,27.00
2022-08-03T09:44:25.470Z,25.87
2022-08-03T09:46:57.354Z,29.13
2022-08-03T09:49:27.619Z,24.17
2022-08-03T09:52:31.676Z,32.77
2022-08-03T09:54:51.966Z,27.43
2022-08-03T09:57:26.129Z,26.70
2022-08-03T10:00:04.733Z,25.67
2022-08-03T10:02:36.685Z,25.23
2022-08-03T10:05:08.383Z,25.73
2022-08-03T10:07:45.893Z,26.73
2022-08-03T10:10:30.176Z,27.03
2022-08-03T10:13:02.256Z,25.47
2022-08-03T10:16:22.238Z,30.43
2022-08-03T10:18:19.876Z,25.83
2022-08-03T10:20:53.464Z,28.83
2022-08-03T10:23:24.980Z,26.00
2022-08-03T10:26:01.649Z,26.53
2022-08-03T10:28:35.847Z,25.20
2022-08-03T10:31:08.371Z,27.67
2022-08-03T10:33:51.786Z,27.30
2022-08-03T10:36:25.834Z,26.80
2022-08-03T10:38:57.088Z,25.57
2022-08-03T10:41:32.514Z,25.53
2022-08-03T10:44:05.531Z,29.90
2022-08-03T10:46:36.082Z,27.67
2022-08-03T10:49:05.760Z,28.23
2022-08-03T10:51:36.848Z,27.13
2022-08-03T10:54:05.629Z,26.07
2022-08-03T10:56:58.418Z,30.00
2022-08-03T11:00:05.955Z,25.70
2022-08-03T11:03:17.071Z,28.10
2022-08-03T11:05:46.954Z,27.02
2022-08-03T11:08:32.010Z,26.45
2022-08-03T11:11:03.293Z,26.70
2022-08-03T11:13:34.001Z,32.80
2022-08-03T11:16:21.968Z,28.30
2022-08-03T11:19:01.050Z,26.35
2022-08-03T11:21:53.912Z,27.13
2022-08-03T11:24:59.821Z,26.05
2022-08-03T11:27:32.871Z,28.30
2022-08-03T11:30:05.382Z,25.50
2022-08-03T11:33:03.614Z,28.17
2022-08-03T11:35:33.752Z,25.45
2022-08-03T11:38:10.805Z,26.88
2022-08-03T11:40:44.666Z,27.10
2022-08-03T11:43:47.684Z,27.80
2022-08-03T11:46:28.236Z,28.05
2022-08-03T11:49:09.781Z,26.02
2022-08-03T11:51:40.499Z,26.83
2022-08-03T11:54:09.600Z,25.75
2022-08-03T11:56:48.891Z,29.73
2022-08-03T11:59:22.277Z,26.40
2022-08-03T12:01:51.927Z,25.70
2022-08-03T12:04:20.576Z,26.42
2022-08-03T12:07:01.903Z,25.60
2022-08-03T12:09:30.525Z,26.70
2022-08-03T12:12:00.469Z,26.13
2022-08-03T12:14:48.420Z,26.50
2022-08-03T12:17:20.259Z,26.58
2022-08-03T12:19:49.137Z,26.50
2022-08-03T12:22:18.011Z,26.15
2022-08-03T12:24:47.640Z,28.23
2022-08-03T12:27:25.826Z,27.27
2022-08-03T12:29:58.932Z,25.63
2022-08-03T12:32:28.362Z,26.95
2022-08-03T12:35:01.339Z,27.65
2022-08-03T12:37:31.024Z,27.00
2022-08-03T12:40:09.538Z,26.83
2022-08-03T12:42:40.830Z,26.17
2022-08-03T12:45:25.745Z,30.30
2022-08-03T12:47:56.300Z,26.33
2022-08-03T12:50:26.525Z,28.73
2022-08-03T12:52:56.303Z,25.85
2022-08-03T12:55:27.670Z,26.00
2022-08-03T12:57:56.387Z,27.15
2022-08-03T13:00:29.365Z,25.40
2022-08-03T13:03:38.494Z,26.25
2022-08-03T13:05:52.605Z,27.13
2022-08-03T13:08:22.263Z,25.80
2022-08-03T13:10:51.071Z,26.67
2022-08-03T13:13:20.844Z,27.08
2022-08-03T13:15:52.271Z,24.85
2022-08-03T13:18:20.971Z,26.05
2022-08-03T13:20:49.800Z,28.17
2022-08-03T13:23:22.262Z,24.95
2022-08-03T13:25:55.835Z,25.50
2022-08-03T13:28:24.941Z,26.55
2022-08-03T13:30:55.526Z,25.73
2022-08-03T13:33:24.249Z,25.85
2022-08-03T13:35:53.044Z,26.60
2022-08-03T13:38:21.837Z,27.63
2022-08-03T13:40:56.049Z,25.00
2022-08-03T13:43:24.801Z,26.45
2022-08-03T13:45:57.787Z,25.58
2022-08-03T13:48:36.944Z,27.58
2022-08-03T13:51:21.604Z,26.52
2022-08-03T13:53:52.292Z,24.52
2022-08-03T13:56:21.077Z,25.92
2022-08-03T13:58:49.711Z,27.30
2022-08-03T14:01:34.406Z,24.55
2022-08-03T14:04:15.826Z,28.35
2022-08-03T14:06:51.201Z,28.48
2022-08-03T14:09:19.887Z,26.55
2022-08-03T14:12:07.023Z,27.33
2022-08-03T14:14:37.070Z,28.48
2022-08-03T14:17:07.223Z,26.15
2022-08-03T14:19:40.572Z,27.77
2022-08-03T14:22:22.785Z,26.75
2022-08-03T14:24:51.603Z,28.38
2022-08-03T14:27:21.834Z,25.88
2022-08-03T14:29:50.667Z,28.17
2022-08-03T14:32:20.882Z,26.98
2022-08-03T14:34:49.552Z,28.75
2022-08-03T14:37:18.413Z,25.33
2022-08-03T14:40:04.202Z,28.42
2022-08-03T14:42:33.014Z,26.15
2022-08-03T14:45:05.976Z,26.27
2022-08-03T14:50:28.401Z,27.38
2022-08-03T14:50:39.841Z,27.40
2022-08-03T14:53:09.640Z,26.70
2022-08-03T14:55:49.399Z,27.45
2022-08-03T14:58:21.503Z,26.27
2022-08-03T15:00:51.765Z,30.48
2022-08-03T15:03:23.738Z,25.13
2022-08-03T15:05:53.286Z,25.27
2022-08-03T15:08:22.377Z,26.00
2022-08-03T15:10:51.327Z,26.50
2022-08-03T15:13:20.858Z,24.77
2022-08-03T15:15:51.837Z,25.38
2022-08-03T15:18:22.043Z,26.25
2022-08-03T15:20:51.027Z,26.88
2022-08-03T15:23:20.247Z,25.13
2022-08-03T15:26:31.813Z,24.75
2022-08-03T15:28:38.003Z,26.95
2022-08-03T15:31:07.509Z,26.30
2022-08-03T15:33:37.999Z,25.58
2022-08-03T15:36:06.860Z,26.77
2022-08-03T15:38:35.531Z,26.75
2022-08-03T15:41:04.306Z,26.30
2022-08-03T15:43:33.227Z,25.38
2022-08-03T15:48:57.657Z,26.15
2022-08-03T15:51:26.337Z,25.70
2022-08-03T15:53:56.025Z,25.90
2022-08-03T15:56:24.920Z,25.35
2022-08-03T15:59:03.903Z,25.75
2022-08-03T16:01:41.851Z,26.45
2022-08-03T16:04:12.102Z,26.08
2022-08-03T16:06:40.783Z,25.75
2022-08-03T16:09:22.922Z,25.92
2022-08-03T16:11:58.758Z,25.40
2022-08-03T16:14:32.369Z,26.00
2022-08-03T16:17:05.357Z,28.88
2022-08-03T16:19:35.683Z,26.67
2022-08-03T16:22:04.428Z,25.75
2022-08-03T16:24:33.062Z,26.10
2022-08-03T16:27:01.742Z,26.65
2022-08-03T16:29:30.614Z,25.02
2022-08-03T16:32:00.558Z,25.67
2022-08-03T16:34:29.290Z,25.35
2022-08-03T16:37:04.833Z,27.75
2022-08-03T16:39:45.310Z,26.38
2022-08-03T16:42:13.881Z,26.10
2022-08-03T16:44:42.943Z,25.98
2022-08-03T16:47:21.758Z,28.08
2022-08-03T16:49:53.787Z,25.92
2022-08-03T16:52:27.405Z,26.55
2022-08-03T16:54:56.184Z,27.23
2022-08-03T16:57:59.440Z,25.92
2022-08-03T17:00:32.943Z,26.27
2022-08-03T17:03:19.094Z,24.85
2022-08-03T17:05:50.275Z,27.35
2022-08-03T17:08:26.807Z,25.52
2022-08-03T17:10:56.920Z,25.55
2022-08-03T17:13:38.740Z,23.85
2022-08-03T17:16:12.059Z,28.88
2022-08-03T17:18:48.462Z,26.55
2022-08-03T17:21:21.174Z,24.55
2022-08-03T17:23:58.422Z,25.73
2022-08-03T17:26:30.464Z,25.75
2022-08-03T17:29:11.248Z,25.33
2022-08-03T17:31:48.982Z,26.67
2022-08-03T17:34:19.085Z,25.80
2022-08-03T17:37:03.636Z,25.75
2022-08-03T17:42:31.079Z,25.02
2022-08-03T17:45:03.601Z,26.77
2022-08-03T17:47:41.951Z,26.73
2022-08-03T17:50:23.280Z,28.00
2022-08-03T17:56:40.679Z,24.23
2022-08-03T17:59:08.220Z,26.70
2022-08-03T18:02:11.590Z,26.10
2022-08-03T18:05:00.925Z,25.92
2022-08-03T18:07:41.189Z,26.15
2022-08-03T18:10:15.191Z,26.83
2022-08-03T18:12:53.470Z,27.67
2022-08-03T18:15:30.411Z,25.02
2022-08-03T18:18:10.502Z,27.13
2022-08-03T18:20:42.389Z,26.83
2022-08-03T18:23:25.538Z,25.52
2022-08-03T18:26:05.617Z,28.63
2022-08-03T18:28:38.491Z,26.98
2022-08-03T18:31:11.650Z,26.05
2022-08-03T18:34:19.087Z,25.50
2022-08-03T18:36:32.985Z,24.98
2022-08-03T18:39:04.100Z,25.93
2022-08-03T18:41:34.980Z,24.88
2022-08-03T18:44:09.433Z,25.30
2022-08-03T18:47:07.250Z,25.40
2022-08-03T18:49:54.258Z,25.87
2022-08-03T18:52:28.707Z,25.77
2022-08-03T18:55:08.455Z,25.80
2022-08-03T18:57:53.320Z,24.63
2022-08-03T19:00:33.508Z,27.20
2022-08-03T19:03:20.613Z,24.60
2022-08-03T19:06:02.505Z,25.87
2022-08-03T19:08:45.271Z,27.07
2022-08-03T19:11:28.282Z,25.07
2022-08-03T19:13:59.282Z,25.63
2022-08-03T19:16:35.701Z,24.90
2022-08-03T19:19:11.197Z,30.10
2022-08-03T19:21:45.212Z,23.77
2022-08-03T19:24:14.905Z,25.90
2022-08-03T19:29:57.870Z,25.30
2022-08-03T19:32:24.620Z,27.70
2022-08-03T19:34:53.517Z,25.73
2022-08-03T19:37:25.800Z,25.30
2022-08-03T19:40:10.460Z,24.23
2022-08-03T19:42:45.475Z,24.80
2022-08-03T19:45:18.446Z,25.63
2022-08-03T19:47:53.879Z,25.00
2022-08-03T19:50:22.603Z,25.87
2022-08-03T19:52:51.971Z,25.83
2022-08-03T19:55:20.803Z,27.93
2022-08-03T19:57:50.822Z,25.63
2022-08-03T20:00:26.429Z,27.17
2022-08-03T20:03:01.301Z,26.47
2022-08-03T20:05:30.336Z,23.87
2022-08-03T20:08:14.566Z,24.87
2022-08-03T20:10:43.253Z,28.40
2022-08-03T20:13:19.279Z,25.13
2022-08-03T20:15:48.635Z,25.47
2022-08-03T20:18:23.533Z,24.70
2022-08-03T20:20:55.056Z,28.10
2022-08-03T20:23:26.958Z,24.20
2022-08-03T20:26:07.749Z,25.07
2022-08-03T20:28:50.366Z,25.73
2022-08-03T20:31:25.182Z,26.37
2022-08-03T20:34:03.191Z,25.60
2022-08-03T20:36:31.949Z,25.23
2022-08-03T20:39:00.991Z,25.03
2022-08-03T20:41:30.744Z,24.07
2022-08-03T20:44:01.827Z,25.90
2022-08-03T20:46:46.520Z,24.83
2022-08-03T20:49:22.955Z,22.77
2022-08-03T20:51:53.617Z,24.20
2022-08-03T20:54:29.570Z,23.97
2022-08-03T20:57:00.707Z,25.23
2022-08-03T20:59:46.993Z,26.37
2022-08-03T21:02:30.096Z,24.40
2022-08-03T21:05:03.352Z,25.47
2022-08-03T21:07:45.479Z,24.53
2022-08-03T21:10:31.594Z,24.73
2022-08-03T21:12:55.594Z,24.83
2022-08-03T21:13:02.203Z,26.20
2022-08-03T21:13:16.359Z,24.97
2022-08-03T21:16:06.755Z,24.43
2022-08-03T21:18:46.067Z,26.57
2022-08-03T21:21:20.112Z,22.70
2022-08-03T21:23:52.587Z,23.73
2022-08-03T21:26:22.984Z,24.57
2022-08-03T21:28:53.886Z,24.30
2022-08-03T21:31:26.591Z,24.03
2022-08-03T21:33:57.560Z,25.00
2022-08-03T21:36:29.919Z,22.83
2022-08-03T21:38:59.546Z,22.70
2022-08-03T21:41:30.013Z,23.03
2022-08-03T21:43:59.361Z,23.70
2022-08-03T21:46:30.514Z,24.90
2022-08-03T21:50:04.980Z,23.30
2022-08-03T21:51:55.177Z,22.83
2022-08-03T21:54:30.869Z,23.30
2022-08-03T21:57:04.159Z,23.67
2022-08-03T21:59:37.093Z,24.23
2022-08-03T22:02:07.069Z,26.87
2022-08-03T22:04:55.958Z,23.60
2022-08-03T22:07:29.853Z,21.83
2022-08-03T22:10:00.259Z,23.33
2022-08-03T22:12:31.104Z,22.53
2022-08-03T22:15:02.371Z,23.10
2022-08-03T22:17:54.850Z,25.00
2022-08-03T22:20:22.994Z,22.33
2022-08-03T22:22:56.734Z,24.27
2022-08-03T22:25:29.921Z,21.90
2022-08-03T22:28:00.780Z,25.60
2022-08-03T22:30:29.676Z,22.47
2022-08-03T22:32:59.016Z,23.73
2022-08-03T22:35:28.524Z,22.77
2022-08-03T22:37:59.924Z,23.17
2022-08-03T22:40:29.074Z,22.57
2022-08-03T22:42:58.520Z,22.93
2022-08-03T22:46:07.498Z,21.40
2022-08-03T22:48:18.025Z,24.20
2022-08-03T22:50:47.551Z,23.20
2022-08-03T22:53:21.588Z,23.20
2022-08-03T22:55:51.713Z,22.13
2022-08-03T22:58:21.874Z,21.53
2022-08-03T23:00:56.927Z,22.03
2022-08-03T23:03:58.674Z,21.70
2022-08-03T23:06:20.218Z,22.43
2022-08-03T23:08:51.491Z,21.83
2022-08-03T23:11:20.403Z,22.00
2022-08-03T23:13:54.041Z,22.93
2022-08-03T23:16:29.046Z,22.10
2022-08-03T23:18:59.555Z,22.20
2022-08-03T23:22:00.218Z,22.57
2022-08-03T23:24:26.185Z,22.03
2022-08-03T23:26:59.475Z,23.50
2022-08-03T23:29:30.360Z,22.90
2022-08-03T23:31:59.743Z,23.90
2022-08-03T23:34:46.591Z,22.67
2022-08-03T23:37:16.081Z,22.60
2022-08-03T23:39:48.082Z,20.80
2022-08-03T23:42:18.917Z,22.80
2022-08-03T23:44:48.001Z,21.50
2022-08-03T23:47:16.570Z,21.70
2022-08-03T23:49:45.617Z,20.87
2022-08-03T23:52:27.256Z,23.50
2022-08-03T23:55:13.097Z,22.63
2022-08-03T23:57:59.228Z,21.67
